sensor_id;sensor_type;location;lat;lon;timestamp;temperature;humidity
1686;DHT22;840;47.980;7.830;2024-01-15T00:01:22;0.20;99.90
1686;DHT22;840;47.980;7.830;2024-01-15T00:03:49;0.10;99.90
1686;DHT22;840;47.980;7.830;2024-01-15T00:06:15;0.10;99.90
1686;DHT22;840;47.980;7.830;2024-01-15T00:08:42;0.10;99.90
1686;DHT22;840;47.980;7.830;2024-01-15T00:11:09;0.00;99.90
1686;DHT22;840;47.980;7.830;2024-01-15T00:13:36;-0.10;99.90
1686;DHT22;840;47.980;7.830;2024-01-15T00:16:03;-0.10;99.90
1686;DHT22;840;47.980;7.830;2024-01-15T00:18:31;-0.20;99.90
1686;DHT22;840;47.980;7.830;2024-01-15T00:20:58;-0.20;99.90
1686;DHT22;840;47.980;7.830;2024-01-15T00:23:25;-0.20;99.90
1686;DHT22;840;47.980;7.830;2024-01-15T00:25:51;-0.20;99.90
1686;DHT22;840;47.980;7.830;2024-01-15T00:28:18;-0.20;99.90
1686;DHT22;840;47.980;7.830;2024-01-15T00:30:45;-0.30;99.90
1686;DHT22;840;47.980;7.830;2024-01-15T00:33:11;-0.20;99.90
1686;DHT22;840;47.980;7.830;2024-01-15T00:35:41;-0.20;99.90
1686;DHT22;840;47.980;7.830;2024-01-15T00:38:08;-0.30;99.90
1686;DHT22;840;47.980;7.830;2024-01-15T00:40:35;-0.30;99.90
1686;DHT22;840;47.980;7.830;2024-01-15T00:43:01;-0.30;99.90
1686;DHT22;840;47.980;7.830;2024-01-15T00:45:28;-0.30;99.90
1686;DHT22;840;47.980;7.830;2024-01-15T00:47:55;-0.30;99.90
1686;DHT22;840;47.980;7.830;2024-01-15T00:50:25;-0.30;99.90
1686;DHT22;840;47.980;7.830;2024-01-15T00:52:53;-0.30;99.90
1686;DHT22;840;47.980;7.830;2024-01-15T00:55:19;-0.30;99.90
1686;DHT22;840;47.980;7.830;2024-01-15T00:57:46;-0.20;99.90
1686;DHT22;840;47.980;7.830;2024-01-15T01:00:13;-0.20;99.90
1686;DHT22;840;47.980;7.830;2024-01-15T01:02:40;-0.20;99.90
1686;DHT22;840;47.980;7.830;2024-01-15T01:05:07;-0.20;99.90
1686;DHT22;840;47.980;7.830;2024-01-15T01:07:34;-0.10;99.90
1686;DHT22;840;47.980;7.830;2024-01-15T01:10:03;-0.10;99.90
1686;DHT22;840;47.980;7.830;2024-01-15T01:12:30;-0.10;99.90
1686;DHT22;840;47.980;7.830;2024-01-15T01:14:56;-0.10;99.90
1686;DHT22;840;47.980;7.830;2024-01-15T01:17:24;-0.10;99.90
1686;DHT22;840;47.980;7.830;2024-01-15T01:19:51;0.00;99.90
1686;DHT22;840;47.980;7.830;2024-01-15T01:22:18;0.00;99.90
1686;DHT22;840;47.980;7.830;2024-01-15T01:24:44;0.00;99.90
1686;DHT22;840;47.980;7.830;2024-01-15T01:27:12;0.00;99.90
1686;DHT22;840;47.980;7.830;2024-01-15T01:29:39;0.00;99.90
1686;DHT22;840;47.980;7.830;2024-01-15T01:32:06;0.00;99.90
1686;DHT22;840;47.980;7.830;2024-01-15T01:34:33;0.00;99.90
1686;DHT22;840;47.980;7.830;2024-01-15T01:37:06;0.00;99.90
1686;DHT22;840;47.980;7.830;2024-01-15T01:39:33;0.00;99.90
1686;DHT22;840;47.980;7.830;2024-01-15T01:41:59;0.00;99.90
1686;DHT22;840;47.980;7.830;2024-01-15T01:44:27;0.00;99.90
1686;DHT22;840;47.980;7.830;2024-01-15T01:46:54;0.00;99.90
1686;DHT22;840;47.980;7.830;2024-01-15T01:49:23;0.00;99.90
1686;DHT22;840;47.980;7.830;2024-01-15T01:51:51;0.00;99.90
1686;DHT22;840;47.980;7.830;2024-01-15T01:54:18;0.00;99.90
1686;DHT22;840;47.980;7.830;2024-01-15T01:56:46;0.00;99.90
1686;DHT22;840;47.980;7.830;2024-01-15T01:59:13;0.00;99.90
1686;DHT22;840;47.980;7.830;2024-01-15T02:01:41;0.00;99.90
1686;DHT22;840;47.980;7.830;2024-01-15T02:04:09;0.10;99.90
1686;DHT22;840;47.980;7.830;2024-01-15T02:06:36;0.10;99.90
1686;DHT22;840;47.980;7.830;2024-01-15T02:09:03;0.10;99.90
1686;DHT22;840;47.980;7.830;2024-01-15T02:11:31;0.00;99.90
1686;DHT22;840;47.980;7.830;2024-01-15T02:13:57;0.00;99.90
1686;DHT22;840;47.980;7.830;2024-01-15T02:16:24;0.10;99.90
1686;DHT22;840;47.980;7.830;2024-01-15T02:18:53;0.10;99.90
1686;DHT22;840;47.980;7.830;2024-01-15T02:21:19;0.10;99.90
1686;DHT22;840;47.980;7.830;2024-01-15T02:23:47;0.10;99.90
1686;DHT22;840;47.980;7.830;2024-01-15T02:26:14;0.10;99.90
1686;DHT22;840;47.980;7.830;2024-01-15T02:28:41;0.10;99.90
1686;DHT22;840;47.980;7.830;2024-01-15T02:31:10;0.00;99.90
1686;DHT22;840;47.980;7.830;2024-01-15T02:33:36;0.00;99.90
1686;DHT22;840;47.980;7.830;2024-01-15T02:36:03;0.00;99.90
1686;DHT22;840;47.980;7.830;2024-01-15T02:38:30;0.00;99.90
1686;DHT22;840;47.980;7.830;2024-01-15T02:40:58;0.00;99.90
1686;DHT22;840;47.980;7.830;2024-01-15T02:43:25;0.00;99.90
1686;DHT22;840;47.980;7.830;2024-01-15T02:45:52;0.00;99.90
1686;DHT22;840;47.980;7.830;2024-01-15T02:48:18;0.00;99.90
1686;DHT22;840;47.980;7.830;2024-01-15T02:50:45;0.00;99.90
1686;DHT22;840;47.980;7.830;2024-01-15T02:53:12;0.10;99.90
1686;DHT22;840;47.980;7.830;2024-01-15T02:55:39;0.00;99.90
1686;DHT22;840;47.980;7.830;2024-01-15T02:58:07;0.00;99.90
1686;DHT22;840;47.980;7.830;2024-01-15T03:00:34;0.10;99.90
1686;DHT22;840;47.980;7.830;2024-01-15T03:03:00;0.10;99.90
1686;DHT22;840;47.980;7.830;2024-01-15T03:05:27;0.20;99.90
1686;DHT22;840;47.980;7.830;2024-01-15T03:07:54;0.20;99.90
1686;DHT22;840;47.980;7.830;2024-01-15T03:10:20;0.20;99.90
1686;DHT22;840;47.980;7.830;2024-01-15T03:12:47;0.20;99.90
1686;DHT22;840;47.980;7.830;2024-01-15T03:15:15;0.30;99.90
1686;DHT22;840;47.980;7.830;2024-01-15T03:17:43;0.30;99.90
1686;DHT22;840;47.980;7.830;2024-01-15T03:20:11;0.30;99.90
1686;DHT22;840;47.980;7.830;2024-01-15T03:22:37;0.30;99.90
1686;DHT22;840;47.980;7.830;2024-01-15T03:25:05;0.30;99.90
1686;DHT22;840;47.980;7.830;2024-01-15T03:27:32;0.40;99.90
1686;DHT22;840;47.980;7.830;2024-01-15T03:29:59;0.40;99.90
1686;DHT22;840;47.980;7.830;2024-01-15T03:32:27;0.40;99.90
1686;DHT22;840;47.980;7.830;2024-01-15T03:34:54;0.40;99.90
1686;DHT22;840;47.980;7.830;2024-01-15T03:37:21;0.40;99.90
1686;DHT22;840;47.980;7.830;2024-01-15T03:39:47;0.40;99.90
1686;DHT22;840;47.980;7.830;2024-01-15T03:42:14;0.50;99.90
1686;DHT22;840;47.980;7.830;2024-01-15T03:44:41;0.50;99.90
1686;DHT22;840;47.980;7.830;2024-01-15T03:47:08;0.50;99.90
1686;DHT22;840;47.980;7.830;2024-01-15T03:49:36;0.50;99.90
1686;DHT22;840;47.980;7.830;2024-01-15T03:52:03;0.50;99.90
1686;DHT22;840;47.980;7.830;2024-01-15T03:54:29;0.50;99.90
1686;DHT22;840;47.980;7.830;2024-01-15T03:56:56;0.50;99.90
1686;DHT22;840;47.980;7.830;2024-01-15T03:59:23;0.50;99.90
1686;DHT22;840;47.980;7.830;2024-01-15T04:01:50;0.50;99.90
1686;DHT22;840;47.980;7.830;2024-01-15T04:04:17;0.40;99.90
1686;DHT22;840;47.980;7.830;2024-01-15T04:06:45;0.30;99.90
1686;DHT22;840;47.980;7.830;2024-01-15T04:09:12;0.30;99.90
1686;DHT22;840;47.980;7.830;2024-01-15T04:11:39;0.30;99.90
1686;DHT22;840;47.980;7.830;2024-01-15T04:14:06;0.30;99.90
1686;DHT22;840;47.980;7.830;2024-01-15T04:16:33;0.30;99.90
1686;DHT22;840;47.980;7.830;2024-01-15T04:18:59;0.30;99.90
1686;DHT22;840;47.980;7.830;2024-01-15T04:21:26;0.30;99.90
1686;DHT22;840;47.980;7.830;2024-01-15T04:23:54;0.30;99.90
1686;DHT22;840;47.980;7.830;2024-01-15T04:26:21;0.30;99.90
1686;DHT22;840;47.980;7.830;2024-01-15T04:28:47;0.40;99.90
1686;DHT22;840;47.980;7.830;2024-01-15T04:31:22;0.40;99.90
1686;DHT22;840;47.980;7.830;2024-01-15T04:33:48;0.30;99.90
1686;DHT22;840;47.980;7.830;2024-01-15T04:36:15;0.40;99.90
1686;DHT22;840;47.980;7.830;2024-01-15T04:38:42;0.30;99.90
1686;DHT22;840;47.980;7.830;2024-01-15T04:41:11;0.30;99.90
1686;DHT22;840;47.980;7.830;2024-01-15T04:43:38;0.30;99.90
1686;DHT22;840;47.980;7.830;2024-01-15T04:46:05;0.20;99.90
1686;DHT22;840;47.980;7.830;2024-01-15T04:48:32;0.20;99.90
1686;DHT22;840;47.980;7.830;2024-01-15T04:50:59;0.20;99.90
1686;DHT22;840;47.980;7.830;2024-01-15T04:53:26;0.20;99.90
1686;DHT22;840;47.980;7.830;2024-01-15T04:55:52;0.10;99.90
1686;DHT22;840;47.980;7.830;2024-01-15T04:58:20;0.10;99.90
1686;DHT22;840;47.980;7.830;2024-01-15T05:00:50;0.10;99.90
1686;DHT22;840;47.980;7.830;2024-01-15T05:03:17;0.20;99.90
1686;DHT22;840;47.980;7.830;2024-01-15T05:05:43;0.20;99.90
1686;DHT22;840;47.980;7.830;2024-01-15T05:08:10;0.30;99.90
1686;DHT22;840;47.980;7.830;2024-01-15T05:10:37;0.40;99.90
1686;DHT22;840;47.980;7.830;2024-01-15T05:13:04;0.40;99.90
1686;DHT22;840;47.980;7.830;2024-01-15T05:15:32;0.50;99.90
1686;DHT22;840;47.980;7.830;2024-01-15T05:17:58;0.50;99.90
1686;DHT22;840;47.980;7.830;2024-01-15T05:20:26;0.60;99.90
1686;DHT22;840;47.980;7.830;2024-01-15T05:22:53;0.70;99.90
1686;DHT22;840;47.980;7.830;2024-01-15T05:25:20;0.70;99.90
1686;DHT22;840;47.980;7.830;2024-01-15T05:27:46;0.70;99.90
1686;DHT22;840;47.980;7.830;2024-01-15T05:30:14;0.70;99.90
1686;DHT22;840;47.980;7.830;2024-01-15T05:32:43;0.80;99.90
1686;DHT22;840;47.980;7.830;2024-01-15T05:35:09;0.80;99.90
1686;DHT22;840;47.980;7.830;2024-01-15T05:37:36;0.80;99.90
1686;DHT22;840;47.980;7.830;2024-01-15T05:40:03;0.80;99.90
1686;DHT22;840;47.980;7.830;2024-01-15T05:42:30;0.80;99.90
1686;DHT22;840;47.980;7.830;2024-01-15T05:44:57;0.80;99.90
1686;DHT22;840;47.980;7.830;2024-01-15T05:47:27;0.80;99.90
1686;DHT22;840;47.980;7.830;2024-01-15T05:49:56;0.80;99.90
1686;DHT22;840;47.980;7.830;2024-01-15T05:52:22;0.90;99.90
1686;DHT22;840;47.980;7.830;2024-01-15T05:54:49;0.90;99.90
1686;DHT22;840;47.980;7.830;2024-01-15T05:57:16;0.90;99.90
1686;DHT22;840;47.980;7.830;2024-01-15T05:59:44;0.90;99.90
1686;DHT22;840;47.980;7.830;2024-01-15T06:02:11;0.90;99.90
1686;DHT22;840;47.980;7.830;2024-01-15T06:04:38;0.90;99.90
1686;DHT22;840;47.980;7.830;2024-01-15T06:07:06;1.00;99.90
1686;DHT22;840;47.980;7.830;2024-01-15T06:09:32;1.00;99.90
1686;DHT22;840;47.980;7.830;2024-01-15T06:11:59;1.00;99.90
1686;DHT22;840;47.980;7.830;2024-01-15T06:14:26;1.00;99.90
1686;DHT22;840;47.980;7.830;2024-01-15T06:16:52;1.00;99.90
1686;DHT22;840;47.980;7.830;2024-01-15T06:19:19;1.00;99.90
1686;DHT22;840;47.980;7.830;2024-01-15T06:21:46;1.00;99.90
1686;DHT22;840;47.980;7.830;2024-01-15T06:24:14;1.00;99.90
1686;DHT22;840;47.980;7.830;2024-01-15T06:26:43;1.00;99.90
1686;DHT22;840;47.980;7.830;2024-01-15T06:29:10;1.10;99.90
1686;DHT22;840;47.980;7.830;2024-01-15T06:31:36;1.10;99.90
1686;DHT22;840;47.980;7.830;2024-01-15T06:34:03;1.10;99.90
1686;DHT22;840;47.980;7.830;2024-01-15T06:36:30;1.10;99.90
1686;DHT22;840;47.980;7.830;2024-01-15T06:38:57;1.10;99.90
1686;DHT22;840;47.980;7.830;2024-01-15T06:41:25;1.10;99.90
1686;DHT22;840;47.980;7.830;2024-01-15T06:43:52;1.10;99.90
1686;DHT22;840;47.980;7.830;2024-01-15T06:46:20;1.10;99.90
1686;DHT22;840;47.980;7.830;2024-01-15T06:48:47;1.10;99.90
1686;DHT22;840;47.980;7.830;2024-01-15T06:51:15;1.20;99.90
1686;DHT22;840;47.980;7.830;2024-01-15T06:53:42;1.20;99.90
1686;DHT22;840;47.980;7.830;2024-01-15T06:56:08;1.20;99.90
1686;DHT22;840;47.980;7.830;2024-01-15T06:58:36;1.20;99.90
1686;DHT22;840;47.980;7.830;2024-01-15T07:01:03;1.30;99.90
1686;DHT22;840;47.980;7.830;2024-01-15T07:03:31;1.30;99.90
1686;DHT22;840;47.980;7.830;2024-01-15T07:05:58;1.30;99.90
1686;DHT22;840;47.980;7.830;2024-01-15T07:08:24;1.20;99.90
1686;DHT22;840;47.980;7.830;2024-01-15T07:10:51;1.20;99.90
1686;DHT22;840;47.980;7.830;2024-01-15T07:13:18;1.20;99.90
1686;DHT22;840;47.980;7.830;2024-01-15T07:15:46;1.20;99.90
1686;DHT22;840;47.980;7.830;2024-01-15T07:18:13;1.20;99.90
1686;DHT22;840;47.980;7.830;2024-01-15T07:20:40;1.10;99.90
1686;DHT22;840;47.980;7.830;2024-01-15T07:23:06;1.10;99.90
1686;DHT22;840;47.980;7.830;2024-01-15T07:25:33;1.10;99.90
1686;DHT22;840;47.980;7.830;2024-01-15T07:28:00;1.10;99.90
1686;DHT22;840;47.980;7.830;2024-01-15T07:30:27;1.20;99.90
1686;DHT22;840;47.980;7.830;2024-01-15T07:32:55;1.20;99.90
1686;DHT22;840;47.980;7.830;2024-01-15T07:35:21;1.20;99.90
1686;DHT22;840;47.980;7.830;2024-01-15T07:37:48;1.20;99.90
1686;DHT22;840;47.980;7.830;2024-01-15T07:40:15;1.20;99.90
1686;DHT22;840;47.980;7.830;2024-01-15T07:42:42;1.30;99.90
1686;DHT22;840;47.980;7.830;2024-01-15T07:45:09;1.30;99.90
1686;DHT22;840;47.980;7.830;2024-01-15T07:47:36;1.30;99.90
1686;DHT22;840;47.980;7.830;2024-01-15T07:50:05;1.40;99.90
1686;DHT22;840;47.980;7.830;2024-01-15T07:52:32;1.40;99.90
1686;DHT22;840;47.980;7.830;2024-01-15T07:54:58;1.40;99.90
1686;DHT22;840;47.980;7.830;2024-01-15T07:57:26;1.50;99.90
1686;DHT22;840;47.980;7.830;2024-01-15T07:59:53;1.50;99.90
1686;DHT22;840;47.980;7.830;2024-01-15T08:02:20;1.50;99.90
1686;DHT22;840;47.980;7.830;2024-01-15T08:04:47;1.60;99.90
1686;DHT22;840;47.980;7.830;2024-01-15T08:07:15;1.60;99.90
1686;DHT22;840;47.980;7.830;2024-01-15T08:09:43;1.70;99.90
1686;DHT22;840;47.980;7.830;2024-01-15T08:12:10;1.70;99.90
1686;DHT22;840;47.980;7.830;2024-01-15T08:14:37;1.80;99.90
1686;DHT22;840;47.980;7.830;2024-01-15T08:17:04;1.80;99.90
1686;DHT22;840;47.980;7.830;2024-01-15T08:19:30;1.90;99.90
1686;DHT22;840;47.980;7.830;2024-01-15T08:21:57;1.90;99.90
1686;DHT22;840;47.980;7.830;2024-01-15T08:24:25;2.00;99.90
1686;DHT22;840;47.980;7.830;2024-01-15T08:26:52;2.10;99.90
1686;DHT22;840;47.980;7.830;2024-01-15T08:29:19;2.10;99.90
1686;DHT22;840;47.980;7.830;2024-01-15T08:31:46;2.20;99.90
1686;DHT22;840;47.980;7.830;2024-01-15T08:34:13;2.30;99.90
1686;DHT22;840;47.980;7.830;2024-01-15T08:36:40;2.30;99.90
1686;DHT22;840;47.980;7.830;2024-01-15T08:39:07;2.30;99.90
1686;DHT22;840;47.980;7.830;2024-01-15T08:41:35;2.30;99.90
1686;DHT22;840;47.980;7.830;2024-01-15T08:44:02;2.30;99.90
1686;DHT22;840;47.980;7.830;2024-01-15T08:46:29;2.30;99.90
1686;DHT22;840;47.980;7.830;2024-01-15T08:48:56;2.30;99.90
1686;DHT22;840;47.980;7.830;2024-01-15T08:51:23;2.30;99.90
1686;DHT22;840;47.980;7.830;2024-01-15T08:53:49;2.30;99.90
1686;DHT22;840;47.980;7.830;2024-01-15T08:56:16;2.30;99.90
1686;DHT22;840;47.980;7.830;2024-01-15T08:58:44;2.30;99.90
1686;DHT22;840;47.980;7.830;2024-01-15T09:01:11;2.30;99.90
1686;DHT22;840;47.980;7.830;2024-01-15T09:03:39;2.30;99.90
1686;DHT22;840;47.980;7.830;2024-01-15T09:06:07;2.40;99.90
1686;DHT22;840;47.980;7.830;2024-01-15T09:08:35;2.40;99.90
1686;DHT22;840;47.980;7.830;2024-01-15T09:11:01;2.40;99.90
1686;DHT22;840;47.980;7.830;2024-01-15T09:13:29;2.40;99.90
1686;DHT22;840;47.980;7.830;2024-01-15T09:15:58;2.40;99.90
1686;DHT22;840;47.980;7.830;2024-01-15T09:18:25;2.40;99.90
1686;DHT22;840;47.980;7.830;2024-01-15T09:20:52;2.50;99.90
1686;DHT22;840;47.980;7.830;2024-01-15T09:23:18;2.50;99.90
1686;DHT22;840;47.980;7.830;2024-01-15T09:25:45;2.50;99.90
1686;DHT22;840;47.980;7.830;2024-01-15T09:28:13;2.50;99.90
1686;DHT22;840;47.980;7.830;2024-01-15T09:30:40;2.50;99.90
1686;DHT22;840;47.980;7.830;2024-01-15T09:33:08;2.60;99.90
1686;DHT22;840;47.980;7.830;2024-01-15T09:35:35;2.70;99.90
1686;DHT22;840;47.980;7.830;2024-01-15T09:38:02;2.70;99.90
1686;DHT22;840;47.980;7.830;2024-01-15T09:40:31;2.80;99.90
1686;DHT22;840;47.980;7.830;2024-01-15T09:42:58;2.80;99.90
1686;DHT22;840;47.980;7.830;2024-01-15T09:45:25;2.90;99.90
1686;DHT22;840;47.980;7.830;2024-01-15T09:47:52;2.90;99.90
1686;DHT22;840;47.980;7.830;2024-01-15T09:50:21;2.90;99.90
1686;DHT22;840;47.980;7.830;2024-01-15T09:52:48;3.00;99.90
1686;DHT22;840;47.980;7.830;2024-01-15T09:55:17;3.00;99.90
1686;DHT22;840;47.980;7.830;2024-01-15T09:57:44;3.00;99.90
1686;DHT22;840;47.980;7.830;2024-01-15T10:00:12;3.10;99.90
1686;DHT22;840;47.980;7.830;2024-01-15T10:02:39;3.10;99.90
1686;DHT22;840;47.980;7.830;2024-01-15T10:05:07;3.20;99.90
1686;DHT22;840;47.980;7.830;2024-01-15T10:07:36;3.20;99.90
1686;DHT22;840;47.980;7.830;2024-01-15T10:10:04;3.20;99.90
1686;DHT22;840;47.980;7.830;2024-01-15T10:12:31;3.20;99.90
1686;DHT22;840;47.980;7.830;2024-01-15T10:14:58;3.30;99.90
1686;DHT22;840;47.980;7.830;2024-01-15T10:17:24;3.30;99.90
1686;DHT22;840;47.980;7.830;2024-01-15T10:19:52;3.40;99.90
1686;DHT22;840;47.980;7.830;2024-01-15T10:22:19;3.40;99.90
1686;DHT22;840;47.980;7.830;2024-01-15T10:24:47;3.40;99.90
1686;DHT22;840;47.980;7.830;2024-01-15T10:27:14;3.40;99.90
1686;DHT22;840;47.980;7.830;2024-01-15T10:29:42;3.40;99.90
1686;DHT22;840;47.980;7.830;2024-01-15T10:32:09;3.40;99.90
1686;DHT22;840;47.980;7.830;2024-01-15T10:34:38;3.40;99.90
1686;DHT22;840;47.980;7.830;2024-01-15T10:37:07;3.40;99.90
1686;DHT22;840;47.980;7.830;2024-01-15T10:39:34;3.50;99.90
1686;DHT22;840;47.980;7.830;2024-01-15T10:42:03;3.40;99.90
1686;DHT22;840;47.980;7.830;2024-01-15T10:44:30;3.50;99.90
1686;DHT22;840;47.980;7.830;2024-01-15T10:46:57;3.50;99.90
1686;DHT22;840;47.980;7.830;2024-01-15T10:49:24;3.50;99.90
1686;DHT22;840;47.980;7.830;2024-01-15T10:51:53;3.40;99.90
1686;DHT22;840;47.980;7.830;2024-01-15T10:54:20;3.30;99.90
1686;DHT22;840;47.980;7.830;2024-01-15T10:56:49;3.30;99.90
1686;DHT22;840;47.980;7.830;2024-01-15T10:59:20;3.30;99.90
1686;DHT22;840;47.980;7.830;2024-01-15T11:01:48;3.30;99.90
1686;DHT22;840;47.980;7.830;2024-01-15T11:04:14;3.30;99.90
1686;DHT22;840;47.980;7.830;2024-01-15T11:06:43;3.30;99.90
1686;DHT22;840;47.980;7.830;2024-01-15T11:09:11;3.40;99.90
1686;DHT22;840;47.980;7.830;2024-01-15T11:11:41;3.30;99.90
1686;DHT22;840;47.980;7.830;2024-01-15T11:14:08;3.30;99.90
1686;DHT22;840;47.980;7.830;2024-01-15T11:17:00;3.30;99.90
1686;DHT22;840;47.980;7.830;2024-01-15T11:19:36;3.30;99.90
1686;DHT22;840;47.980;7.830;2024-01-15T11:22:03;3.20;99.90
1686;DHT22;840;47.980;7.830;2024-01-15T11:24:35;3.20;99.90
1686;DHT22;840;47.980;7.830;2024-01-15T11:27:03;3.20;99.90
1686;DHT22;840;47.980;7.830;2024-01-15T11:29:31;3.20;99.90
1686;DHT22;840;47.980;7.830;2024-01-15T11:32:00;3.20;99.90
1686;DHT22;840;47.980;7.830;2024-01-15T11:34:55;3.30;99.90
1686;DHT22;840;47.980;7.830;2024-01-15T11:37:23;3.30;99.90
1686;DHT22;840;47.980;7.830;2024-01-15T11:39:51;3.30;99.90
1686;DHT22;840;47.980;7.830;2024-01-15T11:42:20;3.30;99.90
1686;DHT22;840;47.980;7.830;2024-01-15T11:44:47;3.30;99.90
1686;DHT22;840;47.980;7.830;2024-01-15T11:47:15;3.30;99.90
1686;DHT22;840;47.980;7.830;2024-01-15T11:49:58;3.30;99.90
1686;DHT22;840;47.980;7.830;2024-01-15T11:52:26;3.30;99.90
1686;DHT22;840;47.980;7.830;2024-01-15T11:55:00;3.30;99.90
1686;DHT22;840;47.980;7.830;2024-01-15T11:57:36;3.30;99.90
1686;DHT22;840;47.980;7.830;2024-01-15T12:00:04;3.20;99.90
1686;DHT22;840;47.980;7.830;2024-01-15T12:02:33;3.20;99.90
1686;DHT22;840;47.980;7.830;2024-01-15T12:05:00;3.30;99.90
1686;DHT22;840;47.980;7.830;2024-01-15T12:07:27;3.20;99.90
1686;DHT22;840;47.980;7.830;2024-01-15T12:09:54;3.30;99.90
1686;DHT22;840;47.980;7.830;2024-01-15T12:12:27;3.30;99.90
1686;DHT22;840;47.980;7.830;2024-01-15T12:14:55;3.30;99.90
1686;DHT22;840;47.980;7.830;2024-01-15T12:17:23;3.40;99.90
1686;DHT22;840;47.980;7.830;2024-01-15T12:19:51;3.40;99.90
1686;DHT22;840;47.980;7.830;2024-01-15T12:22:18;3.50;99.90
1686;DHT22;840;47.980;7.830;2024-01-15T12:24:45;3.50;99.90
1686;DHT22;840;47.980;7.830;2024-01-15T12:27:11;3.50;99.90
1686;DHT22;840;47.980;7.830;2024-01-15T12:29:38;3.60;99.90
1686;DHT22;840;47.980;7.830;2024-01-15T12:32:05;3.60;99.90
1686;DHT22;840;47.980;7.830;2024-01-15T12:34:33;3.60;99.90
1686;DHT22;840;47.980;7.830;2024-01-15T12:37:02;3.70;99.90
1686;DHT22;840;47.980;7.830;2024-01-15T12:39:28;3.80;99.90
1686;DHT22;840;47.980;7.830;2024-01-15T12:41:55;3.80;99.90
1686;DHT22;840;47.980;7.830;2024-01-15T12:44:22;3.80;99.90
1686;DHT22;840;47.980;7.830;2024-01-15T12:46:49;3.70;99.90
1686;DHT22;840;47.980;7.830;2024-01-15T12:49:16;3.70;99.90
1686;DHT22;840;47.980;7.830;2024-01-15T12:51:43;3.60;99.90
1686;DHT22;840;47.980;7.830;2024-01-15T12:54:19;3.60;99.90
1686;DHT22;840;47.980;7.830;2024-01-15T12:56:46;3.60;99.90
1686;DHT22;840;47.980;7.830;2024-01-15T12:59:13;3.60;99.90
1686;DHT22;840;47.980;7.830;2024-01-15T13:01:39;3.60;99.90
1686;DHT22;840;47.980;7.830;2024-01-15T13:04:07;3.60;99.90
1686;DHT22;840;47.980;7.830;2024-01-15T13:06:34;3.60;99.90
1686;DHT22;840;47.980;7.830;2024-01-15T13:09:02;3.60;99.90
1686;DHT22;840;47.980;7.830;2024-01-15T13:11:32;3.60;99.90
1686;DHT22;840;47.980;7.830;2024-01-15T13:13:58;3.60;99.90
1686;DHT22;840;47.980;7.830;2024-01-15T13:16:25;3.60;99.90
1686;DHT22;840;47.980;7.830;2024-01-15T13:18:54;3.60;99.90
1686;DHT22;840;47.980;7.830;2024-01-15T13:21:21;3.70;99.90
1686;DHT22;840;47.980;7.830;2024-01-15T13:23:48;3.70;99.90
1686;DHT22;840;47.980;7.830;2024-01-15T13:26:15;3.70;99.90
1686;DHT22;840;47.980;7.830;2024-01-15T13:28:45;3.70;99.90
1686;DHT22;840;47.980;7.830;2024-01-15T13:31:11;3.70;99.90
1686;DHT22;840;47.980;7.830;2024-01-15T13:33:38;3.70;99.90
1686;DHT22;840;47.980;7.830;2024-01-15T13:36:05;3.70;99.90
1686;DHT22;840;47.980;7.830;2024-01-15T13:38:36;3.70;99.90
1686;DHT22;840;47.980;7.830;2024-01-15T13:41:04;3.60;99.90
1686;DHT22;840;47.980;7.830;2024-01-15T13:43:31;3.50;99.90
1686;DHT22;840;47.980;7.830;2024-01-15T13:45:59;3.40;99.90
1686;DHT22;840;47.980;7.830;2024-01-15T13:48:30;3.40;99.90
1686;DHT22;840;47.980;7.830;2024-01-15T13:50:57;3.30;99.90
1686;DHT22;840;47.980;7.830;2024-01-15T13:53:24;3.30;99.90
1686;DHT22;840;47.980;7.830;2024-01-15T13:55:51;3.30;99.90
1686;DHT22;840;47.980;7.830;2024-01-15T13:58:18;3.20;99.90
1686;DHT22;840;47.980;7.830;2024-01-15T14:00:47;3.20;99.90
1686;DHT22;840;47.980;7.830;2024-01-15T14:03:15;3.30;99.90
1686;DHT22;840;47.980;7.830;2024-01-15T14:05:42;3.30;99.90
1686;DHT22;840;47.980;7.830;2024-01-15T14:08:08;3.20;99.90
1686;DHT22;840;47.980;7.830;2024-01-15T14:10:35;3.20;99.90
1686;DHT22;840;47.980;7.830;2024-01-15T14:13:03;3.20;99.90
1686;DHT22;840;47.980;7.830;2024-01-15T14:15:29;3.20;99.90
1686;DHT22;840;47.980;7.830;2024-01-15T14:17:56;3.20;99.90
1686;DHT22;840;47.980;7.830;2024-01-15T14:20:25;3.10;99.90
1686;DHT22;840;47.980;7.830;2024-01-15T14:22:51;3.10;99.90
1686;DHT22;840;47.980;7.830;2024-01-15T14:25:18;3.10;99.90
1686;DHT22;840;47.980;7.830;2024-01-15T14:27:45;3.10;99.90
1686;DHT22;840;47.980;7.830;2024-01-15T14:30:13;3.10;99.90
1686;DHT22;840;47.980;7.830;2024-01-15T14:32:41;3.10;99.90
1686;DHT22;840;47.980;7.830;2024-01-15T14:35:08;3.10;99.90
1686;DHT22;840;47.980;7.830;2024-01-15T14:37:37;3.10;99.90
1686;DHT22;840;47.980;7.830;2024-01-15T14:40:05;3.10;99.90
1686;DHT22;840;47.980;7.830;2024-01-15T14:42:33;3.10;99.90
1686;DHT22;840;47.980;7.830;2024-01-15T14:44:59;3.10;99.90
1686;DHT22;840;47.980;7.830;2024-01-15T14:47:26;3.10;99.90
1686;DHT22;840;47.980;7.830;2024-01-15T14:49:53;3.00;99.90
1686;DHT22;840;47.980;7.830;2024-01-15T14:52:22;3.00;99.90
1686;DHT22;840;47.980;7.830;2024-01-15T14:54:50;3.00;99.90
1686;DHT22;840;47.980;7.830;2024-01-15T14:57:17;3.00;99.90
1686;DHT22;840;47.980;7.830;2024-01-15T14:59:43;3.00;99.90
1686;DHT22;840;47.980;7.830;2024-01-15T15:02:10;3.00;99.90
1686;DHT22;840;47.980;7.830;2024-01-15T15:04:37;3.00;99.90
1686;DHT22;840;47.980;7.830;2024-01-15T15:07:04;2.90;99.90
1686;DHT22;840;47.980;7.830;2024-01-15T15:09:31;2.90;99.90
1686;DHT22;840;47.980;7.830;2024-01-15T15:11:59;2.90;99.90
1686;DHT22;840;47.980;7.830;2024-01-15T15:14:28;3.00;99.90
1686;DHT22;840;47.980;7.830;2024-01-15T15:16:54;3.00;99.90
1686;DHT22;840;47.980;7.830;2024-01-15T15:19:21;2.90;99.90
1686;DHT22;840;47.980;7.830;2024-01-15T15:21:48;2.90;99.90
1686;DHT22;840;47.980;7.830;2024-01-15T15:24:14;2.90;99.90
1686;DHT22;840;47.980;7.830;2024-01-15T15:26:41;2.90;99.90
1686;DHT22;840;47.980;7.830;2024-01-15T15:29:10;2.90;99.90
1686;DHT22;840;47.980;7.830;2024-01-15T15:31:37;2.80;99.90
1686;DHT22;840;47.980;7.830;2024-01-15T15:34:04;2.80;99.90
1686;DHT22;840;47.980;7.830;2024-01-15T15:36:31;2.80;99.90
1686;DHT22;840;47.980;7.830;2024-01-15T15:38:58;2.80;99.90
1686;DHT22;840;47.980;7.830;2024-01-15T15:41:25;2.80;99.90
1686;DHT22;840;47.980;7.830;2024-01-15T15:43:53;2.80;99.90
1686;DHT22;840;47.980;7.830;2024-01-15T15:46:21;2.80;99.90
1686;DHT22;840;47.980;7.830;2024-01-15T15:48:48;2.80;99.90
1686;DHT22;840;47.980;7.830;2024-01-15T15:51:14;2.80;99.90
1686;DHT22;840;47.980;7.830;2024-01-15T15:53:42;2.90;99.90
1686;DHT22;840;47.980;7.830;2024-01-15T15:56:09;2.90;99.90
1686;DHT22;840;47.980;7.830;2024-01-15T15:58:36;2.80;99.90
1686;DHT22;840;47.980;7.830;2024-01-15T16:01:03;2.80;99.90
1686;DHT22;840;47.980;7.830;2024-01-15T16:03:31;2.80;99.90
1686;DHT22;840;47.980;7.830;2024-01-15T16:05:58;2.80;99.90
1686;DHT22;840;47.980;7.830;2024-01-15T16:08:25;2.70;99.90
1686;DHT22;840;47.980;7.830;2024-01-15T16:10:52;2.70;99.90
1686;DHT22;840;47.980;7.830;2024-01-15T16:13:20;2.60;99.90
1686;DHT22;840;47.980;7.830;2024-01-15T16:15:47;2.60;99.90
1686;DHT22;840;47.980;7.830;2024-01-15T16:18:14;2.50;99.90
1686;DHT22;840;47.980;7.830;2024-01-15T16:20:42;2.50;99.90
1686;DHT22;840;47.980;7.830;2024-01-15T16:23:09;2.50;99.90
1686;DHT22;840;47.980;7.830;2024-01-15T16:25:36;2.50;99.90
1686;DHT22;840;47.980;7.830;2024-01-15T16:28:03;2.50;99.90
1686;DHT22;840;47.980;7.830;2024-01-15T16:30:30;2.50;99.90
1686;DHT22;840;47.980;7.830;2024-01-15T16:32:56;2.50;99.90
1686;DHT22;840;47.980;7.830;2024-01-15T16:35:23;2.50;99.90